createdAt,value
2019-06-15T00:00:03.865Z,19.63
2019-06-15T00:01:05.003Z,19.62
2019-06-15T00:02:04.065Z,19.63
2019-06-15T00:03:04.225Z,19.64
2019-06-15T00:04:04.412Z,19.81
2019-06-15T00:05:04.536Z,19.74
2019-06-15T00:06:04.849Z,19.81
2019-06-15T00:07:04.943Z,19.69
2019-06-15T00:08:05.192Z,19.67
2019-06-15T00:09:05.095Z,19.71
2019-06-15T00:10:05.338Z,19.73
2019-06-15T00:11:05.731Z,19.71
2019-06-15T00:12:05.689Z,19.67
2019-06-15T00:13:05.734Z,19.79
2019-06-15T00:14:05.943Z,19.69
2019-06-15T00:15:06.084Z,19.62
2019-06-15T00:16:06.229Z,19.47
2019-06-15T00:17:06.363Z,19.52
2019-06-15T00:18:06.689Z,19.59
2019-06-15T00:19:06.784Z,19.59
2019-06-15T00:20:06.897Z,19.55
2019-06-15T00:21:07.164Z,19.49
2019-06-15T00:22:07.189Z,19.56
2019-06-15T00:23:07.535Z,19.62
2019-06-15T00:24:07.552Z,19.54
2019-06-15T00:25:07.789Z,19.48
2019-06-15T00:26:07.891Z,19.56
2019-06-15T00:27:08.226Z,19.52
2019-06-15T00:28:08.223Z,19.54
2019-06-15T00:29:08.338Z,19.48
2019-06-15T00:30:08.802Z,19.48
2019-06-15T00:31:08.501Z,19.54
2019-06-15T00:32:08.929Z,19.49
2019-06-15T00:33:09.071Z,19.48
2019-06-15T00:34:09.212Z,19.49
2019-06-15T00:35:09.323Z,19.51
2019-06-15T00:36:09.387Z,19.40
2019-06-15T00:37:09.729Z,19.44
2019-06-15T00:38:09.924Z,19.30
2019-06-15T00:39:10.062Z,19.34
2019-06-15T00:40:10.247Z,19.37
2019-06-15T00:41:10.258Z,19.33
2019-06-15T00:42:10.498Z,19.34
2019-06-15T00:43:10.784Z,19.41
2019-06-15T00:44:10.891Z,19.40
2019-06-15T00:45:11.142Z,19.34
2019-06-15T00:46:11.170Z,19.34
2019-06-15T00:47:11.350Z,19.30
2019-06-15T00:48:11.510Z,19.34
2019-06-15T00:49:11.651Z,19.34
2019-06-15T00:50:15.103Z,19.39
2019-06-15T00:51:14.463Z,19.29
2019-06-15T00:52:15.388Z,19.40
2019-06-15T00:53:15.236Z,19.37
2019-06-15T00:54:14.748Z,19.34
2019-06-15T00:55:14.101Z,19.19
2019-06-15T00:56:15.461Z,19.22
2019-06-15T00:57:17.258Z,19.22
2019-06-15T00:58:18.873Z,19.27
2019-06-15T00:59:16.970Z,19.21
2019-06-15T01:00:13.476Z,19.26
2019-06-15T01:01:13.596Z,19.18
2019-06-15T01:02:13.822Z,19.14
2019-06-15T01:03:14.048Z,19.09
2019-06-15T01:04:14.480Z,19.04
2019-06-15T01:05:15.306Z,19.11
2019-06-15T01:06:14.665Z,19.02
2019-06-15T01:07:14.758Z,19.04
2019-06-15T01:08:14.792Z,18.92
2019-06-15T01:09:14.942Z,18.99
2019-06-15T01:10:15.125Z,18.89
2019-06-15T01:11:15.368Z,18.96
2019-06-15T01:12:15.289Z,18.88
2019-06-15T01:13:15.669Z,18.93
2019-06-15T01:14:16.643Z,18.93
2019-06-15T01:15:15.908Z,18.95
2019-06-15T01:16:16.184Z,18.93
2019-06-15T01:17:16.164Z,18.92
2019-06-15T01:18:16.289Z,18.98
2019-06-15T01:19:16.510Z,18.93
2019-06-15T01:20:16.540Z,19.07
2019-06-15T01:21:16.629Z,18.98
2019-06-15T01:22:16.870Z,18.90
2019-06-15T01:23:17.085Z,19.02
2019-06-15T01:24:17.150Z,19.04
2019-06-15T01:25:17.244Z,19.02
2019-06-15T01:26:17.494Z,18.93
2019-06-15T01:27:17.702Z,18.98
2019-06-15T01:28:17.677Z,19.00
2019-06-15T01:29:18.011Z,18.96
2019-06-15T01:30:18.073Z,18.99
2019-06-15T01:31:18.277Z,18.99
2019-06-15T01:32:18.485Z,19.00
2019-06-15T01:33:18.576Z,19.08
2019-06-15T01:34:18.776Z,19.02
2019-06-15T01:35:18.889Z,19.07
2019-06-15T01:36:19.163Z,18.95
2019-06-15T01:37:19.271Z,18.99
2019-06-15T01:38:19.436Z,18.92
2019-06-15T01:39:19.689Z,18.98
2019-06-15T01:40:19.852Z,19.04
2019-06-15T01:41:20.007Z,19.04
2019-06-15T01:42:20.580Z,19.08
2019-06-15T01:43:20.400Z,18.96
2019-06-15T01:44:20.706Z,18.98
2019-06-15T01:45:20.855Z,19.11
2019-06-15T01:46:20.933Z,19.16
2019-06-15T01:47:21.119Z,19.19
2019-06-15T01:48:21.535Z,19.15
2019-06-15T01:49:21.538Z,19.16
2019-06-15T01:50:21.564Z,19.15
2019-06-15T01:51:21.801Z,19.21
2019-06-15T01:52:21.802Z,19.22
2019-06-15T01:53:22.110Z,19.22
2019-06-15T01:54:22.215Z,19.24
2019-06-15T01:55:22.402Z,19.26
2019-06-15T01:56:22.500Z,19.31
2019-06-15T01:57:22.582Z,19.31
2019-06-15T01:58:22.835Z,19.34
2019-06-15T01:59:22.928Z,19.31
2019-06-15T02:00:23.042Z,19.27
2019-06-15T02:01:23.249Z,19.21
2019-06-15T02:02:23.323Z,19.30
2019-06-15T02:03:23.478Z,19.34
2019-06-15T02:04:23.662Z,19.37
2019-06-15T02:05:24.549Z,19.31
2019-06-15T02:06:23.980Z,19.36
2019-06-15T02:07:24.205Z,19.47
2019-06-15T02:08:24.499Z,19.24
2019-06-15T02:09:24.586Z,19.30
2019-06-15T02:10:24.836Z,19.39
2019-06-15T02:11:25.088Z,19.37
2019-06-15T02:12:25.083Z,19.41
2019-06-15T02:13:25.306Z,19.45
2019-06-15T02:14:26.521Z,19.34
2019-06-15T02:15:25.727Z,19.14
2019-06-15T02:16:25.837Z,19.26
2019-06-15T02:17:26.450Z,19.21
2019-06-15T02:18:26.134Z,19.24
2019-06-15T02:19:26.230Z,19.21
2019-06-15T02:20:26.529Z,19.19
2019-06-15T02:21:26.728Z,19.27
2019-06-15T02:22:26.757Z,19.26
2019-06-15T02:23:27.603Z,19.22
2019-06-15T02:24:27.032Z,19.18
2019-06-15T02:25:35.246Z,19.24
2019-06-15T02:26:27.418Z,19.18
2019-06-15T02:27:27.551Z,19.26
2019-06-15T02:28:27.814Z,19.19
2019-06-15T02:29:27.894Z,19.26
2019-06-15T02:30:28.114Z,19.19
2019-06-15T02:31:28.376Z,19.27
2019-06-15T02:32:28.348Z,19.30
2019-06-15T02:33:28.601Z,19.33
2019-06-15T02:34:28.731Z,19.33
2019-06-15T02:35:29.164Z,19.29
2019-06-15T02:36:29.043Z,19.29
2019-06-15T02:37:29.251Z,19.27
2019-06-15T02:38:29.400Z,19.14
2019-06-15T02:39:29.883Z,19.09
2019-06-15T02:40:29.881Z,19.19
2019-06-15T02:41:30.429Z,19.16
2019-06-15T02:42:31.215Z,19.07
2019-06-15T02:43:30.167Z,19.15
2019-06-15T02:44:31.531Z,19.08
2019-06-15T02:45:30.485Z,19.14
2019-06-15T02:46:30.752Z,19.08
2019-06-15T02:47:30.836Z,19.14
2019-06-15T02:48:31.157Z,19.11
2019-06-15T02:49:31.408Z,19.15
2019-06-15T02:50:31.445Z,19.16
2019-06-15T02:51:32.494Z,19.22
2019-06-15T02:52:31.882Z,19.26
2019-06-15T02:53:32.113Z,19.26
2019-06-15T02:54:32.090Z,19.19
2019-06-15T02:55:32.397Z,19.24
2019-06-15T02:56:32.663Z,19.21
2019-06-15T02:57:32.693Z,19.26
2019-06-15T02:58:33.425Z,19.16
2019-06-15T02:59:32.918Z,19.16
2019-06-15T03:00:33.197Z,19.19
2019-06-15T03:01:33.222Z,19.12
2019-06-15T03:02:33.510Z,19.16
2019-06-15T03:03:34.141Z,19.19
2019-06-15T03:04:33.769Z,19.12
2019-06-15T03:05:33.935Z,19.09
2019-06-15T03:06:34.235Z,19.11
2019-06-15T03:07:35.415Z,18.93
2019-06-15T03:08:34.521Z,18.89
2019-06-15T03:09:34.773Z,18.96
2019-06-15T03:10:35.502Z,18.98
2019-06-15T03:11:35.084Z,18.92
2019-06-15T03:12:35.402Z,18.98
2019-06-15T03:13:35.565Z,18.95
2019-06-15T03:14:35.650Z,19.04
2019-06-15T03:15:35.898Z,19.04
2019-06-15T03:16:36.074Z,19.02
2019-06-15T03:17:36.228Z,18.96
2019-06-15T03:18:36.374Z,19.02
2019-06-15T03:19:36.595Z,18.99
2019-06-15T03:20:36.648Z,18.98
2019-06-15T03:21:36.800Z,19.00
2019-06-15T03:22:37.047Z,19.07
2019-06-15T03:23:37.332Z,19.02
2019-06-15T03:24:37.320Z,19.04
2019-06-15T03:25:37.492Z,18.95
2019-06-15T03:26:37.638Z,19.11
2019-06-15T03:27:37.735Z,19.07
2019-06-15T03:28:37.891Z,19.12
2019-06-15T03:29:38.016Z,18.98
2019-06-15T03:30:38.287Z,19.04
2019-06-15T03:31:38.443Z,18.96
2019-06-15T03:32:38.420Z,18.93
2019-06-15T03:33:38.730Z,18.96
2019-06-15T03:34:38.787Z,18.99
2019-06-15T03:35:39.169Z,18.92
2019-06-15T03:36:39.472Z,18.99
2019-06-15T03:37:39.257Z,18.95
2019-06-15T03:38:41.957Z,18.90
2019-06-15T03:39:42.154Z,18.93
2019-06-15T03:40:43.207Z,18.86
2019-06-15T03:41:43.154Z,18.96
2019-06-15T03:42:42.035Z,18.98
2019-06-15T03:43:43.125Z,18.92
2019-06-15T03:44:42.373Z,18.93
2019-06-15T03:45:43.299Z,19.04
2019-06-15T03:46:43.596Z,18.99
2019-06-15T03:47:43.689Z,18.95
2019-06-15T03:48:42.853Z,18.93
2019-06-15T03:49:44.684Z,19.02
2019-06-15T03:50:44.596Z,18.96
2019-06-15T03:51:43.656Z,18.90
2019-06-15T03:52:43.507Z,18.95
2019-06-15T03:53:43.700Z,19.00
2019-06-15T03:54:44.059Z,18.96
2019-06-15T03:55:44.276Z,18.89
2019-06-15T03:56:44.309Z,18.96
2019-06-15T03:57:46.912Z,19.02
2019-06-15T03:58:46.478Z,18.98
2019-06-15T03:59:46.809Z,18.95
2019-06-15T04:00:44.961Z,18.86
2019-06-15T04:01:47.272Z,18.92
2019-06-15T04:02:47.494Z,18.92
2019-06-15T04:03:45.500Z,18.89
2019-06-15T04:04:45.508Z,18.95
2019-06-15T04:05:46.556Z,18.89
2019-06-15T04:06:46.565Z,18.88
2019-06-15T04:07:44.150Z,18.89
2019-06-15T04:08:44.314Z,18.88
2019-06-15T04:09:44.413Z,18.81
2019-06-15T04:10:44.683Z,18.95
2019-06-15T04:11:44.790Z,18.84
2019-06-15T04:12:45.029Z,18.92
2019-06-15T04:13:45.061Z,18.80
2019-06-15T04:14:45.358Z,18.75
2019-06-15T04:15:45.446Z,18.80
2019-06-15T04:16:45.642Z,18.71
2019-06-15T04:17:45.850Z,18.75
2019-06-15T04:18:46.044Z,18.78
2019-06-15T04:19:46.136Z,18.73
2019-06-15T04:20:46.303Z,18.83
2019-06-15T04:21:46.389Z,18.81
2019-06-15T04:22:46.601Z,18.78
2019-06-15T04:23:46.751Z,18.73
2019-06-15T04:24:46.998Z,18.77
2019-06-15T04:25:47.022Z,18.80
2019-06-15T04:26:47.137Z,18.89
2019-06-15T04:27:47.439Z,18.84
2019-06-15T04:28:47.595Z,18.88
2019-06-15T04:29:47.722Z,18.89
2019-06-15T04:30:47.980Z,18.92
2019-06-15T04:31:48.095Z,18.89
2019-06-15T04:32:48.281Z,18.89
2019-06-15T04:33:48.410Z,18.89
2019-06-15T04:34:48.578Z,18.81
2019-06-15T04:35:48.754Z,18.96
2019-06-15T04:36:48.879Z,18.93
2019-06-15T04:37:49.064Z,18.98
2019-06-15T04:38:49.261Z,18.88
2019-06-15T04:39:49.386Z,19.04
2019-06-15T04:40:49.585Z,18.93
2019-06-15T04:41:49.671Z,18.93
2019-06-15T04:42:49.795Z,19.00
2019-06-15T04:43:49.912Z,18.99
2019-06-15T04:44:50.001Z,19.04
2019-06-15T04:45:50.243Z,19.07
2019-06-15T04:46:50.507Z,19.12
2019-06-15T04:47:50.500Z,19.18
2019-06-15T04:48:50.733Z,19.16
2019-06-15T04:49:50.826Z,19.26
2019-06-15T04:50:50.979Z,19.33
2019-06-15T04:51:51.202Z,19.36
2019-06-15T04:52:51.260Z,19.31
2019-06-15T04:53:51.376Z,19.40
2019-06-15T04:54:51.611Z,19.49
2019-06-15T04:55:51.857Z,19.58
2019-06-15T04:56:51.969Z,19.54
2019-06-15T04:57:52.309Z,19.52
2019-06-15T04:58:52.546Z,19.54
2019-06-15T04:59:52.650Z,19.66
2019-06-15T05:00:52.928Z,19.69
2019-06-15T05:01:53.154Z,19.67
2019-06-15T05:02:53.339Z,19.69
2019-06-15T05:03:53.453Z,19.64
2019-06-15T05:04:53.231Z,19.64
2019-06-15T05:05:53.367Z,19.67
2019-06-15T05:06:53.525Z,19.56
2019-06-15T05:07:53.655Z,19.69
2019-06-15T05:08:53.821Z,19.64
2019-06-15T05:09:54.090Z,19.54
2019-06-15T05:10:59.679Z,19.58
2019-06-15T05:11:54.247Z,19.63
2019-06-15T05:12:54.443Z,19.58
2019-06-15T05:13:54.637Z,19.66
2019-06-15T05:14:54.816Z,19.69
2019-06-15T05:15:54.931Z,19.64
2019-06-15T05:16:55.711Z,19.67
2019-06-15T05:17:55.540Z,19.77
2019-06-15T05:18:56.541Z,19.86
2019-06-15T05:19:55.923Z,19.89
2019-06-15T05:20:55.886Z,19.91
2019-06-15T05:21:56.059Z,20.03
2019-06-15T05:22:56.963Z,20.06
2019-06-15T05:23:56.318Z,20.10
2019-06-15T05:24:56.588Z,20.10
2019-06-15T05:25:56.747Z,20.10
2019-06-15T05:27:05.829Z,20.13
2019-06-15T05:27:57.018Z,20.06
2019-06-15T05:28:57.311Z,20.07
2019-06-15T05:29:57.396Z,20.26
2019-06-15T05:31:01.279Z,20.43
2019-06-15T05:31:57.834Z,20.62
2019-06-15T05:32:57.944Z,20.52
2019-06-15T05:33:58.054Z,20.56
2019-06-15T05:34:58.153Z,20.52
2019-06-15T05:35:58.421Z,20.74
2019-06-15T05:36:58.844Z,20.70
2019-06-15T05:37:58.835Z,20.84
2019-06-15T05:38:58.916Z,20.80
2019-06-15T05:39:59.028Z,20.85
2019-06-15T05:40:59.623Z,21.02
2019-06-15T05:41:59.297Z,21.00
2019-06-15T05:42:59.520Z,21.14
2019-06-15T05:43:59.758Z,21.24
2019-06-15T05:45:00.169Z,21.30
2019-06-15T05:46:00.296Z,21.42
2019-06-15T05:47:00.555Z,21.52
2019-06-15T05:48:00.373Z,21.76
2019-06-15T05:49:00.773Z,21.76
2019-06-15T05:50:00.679Z,21.77
2019-06-15T05:51:00.838Z,21.70
2019-06-15T05:52:01.003Z,21.76
2019-06-15T05:53:01.456Z,21.70
2019-06-15T05:54:01.504Z,21.75
2019-06-15T05:55:01.640Z,21.85
2019-06-15T05:56:01.877Z,21.73
2019-06-15T05:57:02.130Z,21.55
2019-06-15T05:58:02.540Z,21.42
2019-06-15T05:59:02.551Z,21.67
2019-06-15T06:00:02.692Z,21.76
2019-06-15T06:01:03.102Z,21.79
2019-06-15T06:02:02.838Z,21.92
2019-06-15T06:03:02.987Z,21.98
2019-06-15T06:04:03.184Z,21.98
2019-06-15T06:05:03.342Z,22.11
2019-06-15T06:06:03.478Z,22.14
2019-06-15T06:07:03.569Z,22.17
2019-06-15T06:08:03.776Z,22.28
2019-06-15T06:09:03.910Z,22.35
2019-06-15T06:10:04.283Z,22.44
2019-06-15T06:11:04.201Z,22.51
2019-06-15T06:12:04.454Z,22.48
2019-06-15T06:13:04.693Z,22.69
2019-06-15T06:14:04.725Z,22.69
2019-06-15T06:15:04.835Z,22.62
2019-06-15T06:16:04.957Z,22.48
2019-06-15T06:17:05.107Z,22.51
2019-06-15T06:18:05.305Z,22.63
2019-06-15T06:19:05.364Z,22.73
2019-06-15T06:20:05.902Z,22.75
2019-06-15T06:21:05.743Z,22.78
2019-06-15T06:22:06.000Z,22.90
2019-06-15T06:23:06.188Z,22.88
2019-06-15T06:24:06.301Z,23.17
2019-06-15T06:25:06.526Z,23.20
2019-06-15T06:26:06.633Z,23.34
2019-06-15T06:27:06.884Z,23.41
2019-06-15T06:28:06.960Z,23.59
2019-06-15T06:29:07.086Z,23.83
2019-06-15T06:30:07.542Z,23.84
2019-06-15T06:31:07.781Z,23.91
2019-06-15T06:32:07.645Z,23.91
2019-06-15T06:33:07.736Z,23.87
2019-06-15T06:34:07.841Z,23.98
2019-06-15T06:35:08.020Z,24.08
2019-06-15T06:36:08.213Z,24.08
2019-06-15T06:37:08.352Z,24.13
2019-06-15T06:38:08.485Z,24.18
2019-06-15T06:39:08.585Z,24.20
2019-06-15T06:40:08.786Z,24.30
2019-06-15T06:41:08.899Z,24.29
2019-06-15T06:42:10.084Z,24.30
2019-06-15T06:43:10.930Z,24.36
2019-06-15T06:44:12.839Z,24.60
2019-06-15T06:45:11.203Z,24.74
2019-06-15T06:46:09.692Z,24.76
2019-06-15T06:47:09.847Z,24.89
2019-06-15T06:48:10.022Z,25.14
2019-06-15T06:49:10.095Z,25.08
2019-06-15T06:50:10.194Z,25.14
2019-06-15T06:51:10.354Z,25.32
2019-06-15T06:52:10.611Z,25.40
2019-06-15T06:53:10.794Z,25.29
2019-06-15T06:54:10.892Z,25.29
2019-06-15T06:55:11.143Z,25.46
2019-06-15T06:56:11.249Z,25.65
2019-06-15T06:57:11.384Z,25.70
2019-06-15T06:58:11.494Z,25.66
2019-06-15T06:59:11.794Z,25.77
2019-06-15T07:00:11.927Z,25.84
2019-06-15T07:01:12.044Z,26.03
2019-06-15T07:02:12.359Z,26.25
2019-06-15T07:03:12.520Z,26.28
2019-06-15T07:04:12.682Z,26.63
2019-06-15T07:05:12.936Z,26.56
2019-06-15T07:06:12.992Z,26.83
2019-06-15T07:07:13.283Z,26.85
2019-06-15T07:08:13.617Z,26.88
2019-06-15T07:09:13.568Z,27.03
2019-06-15T07:10:13.737Z,27.32
2019-06-15T07:11:13.963Z,27.33
2019-06-15T07:12:14.158Z,27.40
2019-06-15T07:13:14.264Z,27.55
2019-06-15T07:14:14.471Z,27.70
2019-06-15T07:15:14.713Z,28.00
2019-06-15T07:16:14.814Z,28.14
2019-06-15T07:17:15.098Z,28.37
2019-06-15T07:18:15.296Z,28.49
2019-06-15T07:19:15.335Z,28.30
2019-06-15T07:20:15.453Z,28.26
2019-06-15T07:21:15.698Z,28.35
2019-06-15T07:22:15.864Z,28.47
2019-06-15T07:23:16.792Z,28.89
2019-06-15T07:24:16.505Z,28.82
2019-06-15T07:25:16.984Z,28.82
2019-06-15T07:26:16.613Z,28.96
2019-06-15T07:27:17.373Z,29.08
2019-06-15T07:28:17.000Z,29.27
2019-06-15T07:29:16.910Z,29.17
2019-06-15T07:30:17.062Z,29.63
2019-06-15T07:31:17.228Z,29.71
2019-06-15T07:32:17.712Z,29.81
2019-06-15T07:33:17.713Z,30.03
2019-06-15T07:34:17.888Z,30.13
2019-06-15T07:35:18.040Z,30.12
2019-06-15T07:36:18.480Z,29.82
2019-06-15T07:37:18.383Z,29.98
2019-06-15T07:38:18.967Z,30.08
2019-06-15T07:39:19.087Z,30.18
2019-06-15T07:40:19.523Z,30.27
2019-06-15T07:41:19.219Z,29.87
2019-06-15T07:42:20.615Z,30.21
2019-06-15T07:43:20.933Z,30.50
2019-06-15T07:44:22.383Z,30.44
2019-06-15T07:45:21.088Z,30.48
2019-06-15T07:46:21.435Z,30.62
2019-06-15T07:47:20.292Z,30.70
2019-06-15T07:48:20.190Z,30.51
2019-06-15T07:49:20.849Z,30.77
2019-06-15T07:50:20.715Z,30.97
2019-06-15T07:51:22.312Z,31.14
2019-06-15T07:52:20.914Z,31.46
2019-06-15T07:53:21.078Z,31.69
2019-06-15T07:54:22.002Z,31.97
2019-06-15T07:55:21.308Z,32.18
2019-06-15T07:56:21.876Z,32.34
2019-06-15T07:57:21.599Z,32.45
2019-06-15T07:58:24.853Z,32.51
2019-06-15T07:59:22.214Z,32.75
2019-06-15T08:00:22.210Z,32.75
2019-06-15T08:01:22.470Z,33.04
2019-06-15T08:02:22.831Z,33.05
2019-06-15T08:03:23.128Z,33.02
2019-06-15T08:04:23.576Z,33.02
2019-06-15T08:05:24.554Z,33.28
2019-06-15T08:06:23.648Z,33.40
2019-06-15T08:07:23.446Z,33.55
2019-06-15T08:08:23.548Z,33.71
2019-06-15T08:09:23.757Z,33.76
2019-06-15T08:10:24.015Z,33.73
2019-06-15T08:11:24.113Z,33.65
2019-06-15T08:12:24.494Z,34.01
2019-06-15T08:13:24.707Z,34.11
2019-06-15T08:14:24.803Z,34.23
2019-06-15T08:15:25.185Z,34.18
2019-06-15T08:16:25.201Z,34.06
2019-06-15T08:17:25.455Z,33.99
2019-06-15T08:18:25.598Z,33.94
2019-06-15T08:19:25.778Z,34.03
2019-06-15T08:20:25.996Z,34.30
2019-06-15T08:21:26.259Z,34.51
2019-06-15T08:22:26.346Z,34.67
2019-06-15T08:23:26.432Z,34.73
2019-06-15T08:24:26.703Z,34.97
2019-06-15T08:25:26.778Z,34.93
2019-06-15T08:26:27.651Z,34.85
2019-06-15T08:27:27.315Z,34.95
2019-06-15T08:28:39.579Z,35.02
2019-06-15T08:29:28.491Z,35.07
2019-06-15T08:30:29.070Z,35.15
2019-06-15T08:31:29.044Z,35.55
2019-06-15T08:32:29.517Z,35.64
2019-06-15T08:33:28.772Z,35.90
2019-06-15T08:34:28.882Z,35.97
2019-06-15T08:35:30.051Z,35.85
2019-06-15T08:36:29.021Z,35.36
2019-06-15T08:37:32.229Z,35.56
2019-06-15T08:38:29.834Z,35.15
2019-06-15T08:39:29.530Z,35.19
2019-06-15T08:40:29.833Z,35.52
2019-06-15T08:41:30.495Z,35.79
2019-06-15T08:42:31.532Z,35.74
2019-06-15T08:43:31.506Z,35.89
2019-06-15T08:44:30.686Z,36.07
2019-06-15T08:45:34.078Z,36.18
2019-06-15T08:46:30.837Z,35.90
2019-06-15T08:47:31.072Z,35.55
2019-06-15T08:48:33.568Z,35.33
2019-06-15T08:49:33.579Z,35.08
2019-06-15T08:50:33.040Z,34.39
2019-06-15T08:51:31.565Z,34.67
2019-06-15T08:52:31.658Z,34.60
2019-06-15T08:53:31.925Z,33.46
2019-06-15T08:54:32.341Z,33.58
2019-06-15T08:55:32.573Z,34.02
2019-06-15T08:56:32.448Z,34.35
2019-06-15T08:57:32.663Z,34.66
2019-06-15T08:58:35.970Z,34.95
2019-06-15T08:59:32.863Z,35.22
2019-06-15T09:00:33.737Z,35.39
2019-06-15T09:01:33.243Z,34.73
2019-06-15T09:02:33.321Z,34.27
2019-06-15T09:03:33.732Z,34.89
2019-06-15T09:04:33.688Z,34.54
2019-06-15T09:05:33.929Z,34.85
2019-06-15T09:06:34.966Z,33.53
2019-06-15T09:07:34.198Z,34.03
2019-06-15T09:08:34.538Z,34.45
2019-06-15T09:09:36.558Z,33.96
2019-06-15T09:10:36.458Z,34.73
2019-06-15T09:11:36.289Z,34.38
2019-06-15T09:12:37.010Z,34.89
2019-06-15T09:13:36.568Z,35.17
2019-06-15T09:14:35.731Z,35.51
2019-06-15T09:15:35.922Z,36.02
2019-06-15T09:16:35.826Z,36.16
2019-06-15T09:17:36.701Z,36.46
2019-06-15T09:18:36.258Z,36.45
2019-06-15T09:19:36.329Z,36.52
2019-06-15T09:20:37.032Z,36.65
2019-06-15T09:21:37.117Z,35.31
2019-06-15T09:22:37.300Z,36.09
2019-06-15T09:23:37.382Z,36.88
2019-06-15T09:24:39.634Z,35.82
2019-06-15T09:25:37.542Z,35.78
2019-06-15T09:26:37.655Z,36.47
2019-06-15T09:27:37.996Z,35.86
2019-06-15T09:28:38.079Z,35.42
2019-06-15T09:29:39.573Z,34.24
2019-06-15T09:30:38.307Z,33.57
2019-06-15T09:31:38.665Z,32.96
2019-06-15T09:32:38.855Z,32.33
2019-06-15T09:33:38.884Z,31.61
2019-06-15T09:34:39.079Z,31.17
2019-06-15T09:35:39.319Z,32.30
2019-06-15T09:36:39.422Z,32.01
2019-06-15T09:37:39.641Z,31.90
2019-06-15T09:38:39.737Z,33.42
2019-06-15T09:39:39.976Z,34.24
2019-06-15T09:40:40.171Z,35.11
2019-06-15T09:41:40.459Z,35.73
2019-06-15T09:42:40.522Z,35.76
2019-06-15T09:43:40.770Z,36.14
2019-06-15T09:44:40.896Z,36.17
2019-06-15T09:45:41.084Z,36.81
2019-06-15T09:46:41.286Z,36.74
2019-06-15T09:47:41.784Z,36.12
2019-06-15T09:48:41.757Z,34.80
2019-06-15T09:49:41.926Z,33.87
2019-06-15T09:50:42.889Z,32.85
2019-06-15T09:51:43.553Z,32.48
2019-06-15T09:52:43.167Z,33.09
2019-06-15T09:53:42.514Z,33.15
2019-06-15T09:54:42.688Z,33.15
2019-06-15T09:55:43.001Z,33.19
2019-06-15T09:56:44.365Z,32.56
2019-06-15T09:57:43.875Z,32.01
2019-06-15T09:58:45.403Z,31.37
2019-06-15T09:59:44.469Z,30.97
2019-06-15T10:00:44.328Z,30.48
2019-06-15T10:01:46.194Z,30.05
2019-06-15T10:02:45.124Z,29.63
2019-06-15T10:03:45.170Z,29.41
2019-06-15T10:04:45.353Z,29.13
2019-06-15T10:05:44.650Z,28.96
2019-06-15T10:06:44.778Z,28.91
2019-06-15T10:07:44.871Z,28.67
2019-06-15T10:08:45.116Z,28.49
2019-06-15T10:09:45.197Z,28.97
2019-06-15T10:10:45.405Z,29.16
2019-06-15T10:11:45.618Z,29.24
2019-06-15T10:12:45.839Z,29.31
2019-06-15T10:13:46.034Z,29.54
2019-06-15T10:14:47.452Z,30.34
2019-06-15T10:15:46.975Z,29.75
2019-06-15T10:16:47.181Z,29.35
2019-06-15T10:17:47.060Z,28.98
2019-06-15T10:18:47.300Z,28.74
2019-06-15T10:19:47.137Z,28.54
2019-06-15T10:20:47.217Z,29.07
2019-06-15T10:21:47.440Z,30.66
2019-06-15T10:22:47.657Z,31.18
2019-06-15T10:23:47.855Z,32.18
2019-06-15T10:24:48.150Z,33.00
2019-06-15T10:25:50.429Z,32.48
2019-06-15T10:26:48.452Z,33.68
2019-06-15T10:27:48.547Z,34.02
2019-06-15T10:28:48.785Z,34.58
2019-06-15T10:29:48.911Z,35.17
2019-06-15T10:30:49.007Z,35.44
2019-06-15T10:31:49.159Z,35.60
2019-06-15T10:32:49.386Z,36.04
2019-06-15T10:33:49.601Z,36.28
2019-06-15T10:34:49.821Z,36.33
2019-06-15T10:35:50.024Z,36.45
2019-06-15T10:36:50.221Z,36.81
2019-06-15T10:37:50.490Z,36.59
2019-06-15T10:38:50.676Z,36.45
2019-06-15T10:39:50.865Z,36.81
2019-06-15T10:40:51.085Z,36.68
2019-06-15T10:41:51.293Z,36.96
2019-06-15T10:42:51.398Z,36.93
2019-06-15T10:43:51.642Z,36.49
2019-06-15T10:44:51.835Z,36.61
2019-06-15T10:45:51.930Z,36.40
2019-06-15T10:46:52.137Z,36.09
2019-06-15T10:47:52.355Z,34.92
2019-06-15T10:48:55.584Z,36.12
2019-06-15T10:49:52.822Z,35.49
2019-06-15T10:50:52.910Z,35.08
2019-06-15T10:51:53.131Z,35.10
2019-06-15T10:52:53.344Z,35.73
2019-06-15T10:53:53.573Z,36.08
2019-06-15T10:54:53.797Z,36.02
2019-06-15T10:55:53.988Z,36.28
2019-06-15T10:56:54.238Z,36.73
2019-06-15T10:57:54.461Z,36.58
2019-06-15T10:58:54.677Z,36.49
2019-06-15T10:59:57.631Z,36.68
2019-06-15T11:00:55.106Z,36.51
2019-06-15T11:01:55.305Z,36.61
2019-06-15T11:02:55.485Z,36.79
2019-06-15T11:03:55.678Z,36.43
2019-06-15T11:04:55.874Z,36.07
2019-06-15T11:05:56.104Z,35.78
2019-06-15T11:06:56.236Z,35.70
2019-06-15T11:07:56.423Z,36.01
2019-06-15T11:08:56.641Z,35.73
2019-06-15T11:09:56.845Z,35.89
2019-06-15T11:10:57.066Z,35.61
2019-06-15T11:11:57.308Z,35.85
2019-06-15T11:12:57.397Z,35.88
2019-06-15T11:13:57.712Z,35.53
2019-06-15T11:14:57.744Z,35.48
2019-06-15T11:15:57.979Z,35.76
2019-06-15T11:16:58.182Z,35.80
2019-06-15T11:17:58.380Z,35.89
2019-06-15T11:18:58.597Z,35.31
2019-06-15T11:19:58.811Z,34.71
2019-06-15T11:20:59.154Z,33.42
2019-06-15T11:21:59.195Z,32.60
2019-06-15T11:22:59.416Z,32.04
2019-06-15T11:23:59.618Z,31.69
2019-06-15T11:24:59.842Z,31.65
2019-06-15T11:26:00.047Z,31.84
2019-06-15T11:27:00.270Z,31.56
2019-06-15T11:28:00.426Z,31.18
2019-06-15T11:29:00.508Z,31.17
2019-06-15T11:30:13.062Z,31.02
2019-06-15T11:31:00.815Z,31.18
2019-06-15T11:32:01.030Z,31.29
2019-06-15T11:33:01.370Z,31.29
2019-06-15T11:34:01.448Z,31.36
2019-06-15T11:35:01.684Z,31.47
2019-06-15T11:36:01.795Z,31.46
2019-06-15T11:37:02.004Z,31.52
2019-06-15T11:38:02.250Z,31.58
2019-06-15T11:39:02.381Z,31.61
2019-06-15T11:40:02.558Z,31.39
2019-06-15T11:41:02.795Z,31.33
2019-06-15T11:42:03.049Z,31.18
2019-06-15T11:43:03.182Z,31.20
2019-06-15T11:44:03.283Z,31.21
2019-06-15T11:45:03.496Z,31.15
2019-06-15T11:46:03.684Z,30.96
2019-06-15T11:47:03.889Z,30.77
2019-06-15T11:48:04.106Z,30.68
2019-06-15T11:49:04.324Z,30.75
2019-06-15T11:50:04.477Z,30.73
2019-06-15T11:51:04.570Z,30.75
2019-06-15T11:52:04.808Z,30.63
2019-06-15T11:53:04.924Z,30.46
2019-06-15T11:54:05.084Z,30.46
2019-06-15T11:55:05.160Z,30.47
2019-06-15T11:56:05.475Z,30.48
2019-06-15T11:57:05.644Z,30.53
2019-06-15T11:58:05.789Z,30.69
2019-06-15T11:59:05.867Z,30.69
2019-06-15T12:00:06.087Z,30.63
2019-06-15T12:01:06.273Z,30.70
2019-06-15T12:02:06.377Z,30.61
2019-06-15T12:03:06.524Z,30.54
2019-06-15T12:04:06.660Z,30.43
2019-06-15T12:05:06.828Z,30.32
2019-06-15T12:06:07.050Z,30.12
2019-06-15T12:07:07.129Z,30.00
2019-06-15T12:08:07.222Z,29.90
2019-06-15T12:09:07.817Z,29.97
2019-06-15T12:10:07.677Z,30.08
2019-06-15T12:11:07.755Z,30.08
2019-06-15T12:12:07.983Z,30.18
2019-06-15T12:13:08.051Z,30.19
2019-06-15T12:14:08.163Z,30.06
2019-06-15T12:15:08.391Z,29.84
2019-06-15T12:16:08.613Z,29.84
2019-06-15T12:17:08.716Z,29.78
2019-06-15T12:18:08.833Z,29.59
2019-06-15T12:19:10.535Z,29.72
2019-06-15T12:20:09.583Z,29.72
2019-06-15T12:21:09.366Z,29.81
2019-06-15T12:22:09.568Z,29.84
2019-06-15T12:23:09.688Z,29.87
2019-06-15T12:24:09.824Z,29.72
2019-06-15T12:25:09.920Z,29.78
2019-06-15T12:26:10.076Z,29.73
2019-06-15T12:27:10.195Z,29.72
2019-06-15T12:28:10.376Z,29.73
2019-06-15T12:29:10.545Z,29.71
2019-06-15T12:30:10.748Z,29.65
2019-06-15T12:31:10.903Z,29.65
2019-06-15T12:32:11.063Z,29.36
2019-06-15T12:33:11.243Z,29.51
2019-06-15T12:34:11.363Z,29.68
2019-06-15T12:35:11.589Z,29.79
2019-06-15T12:36:19.251Z,29.81
2019-06-15T12:37:11.897Z,29.86
2019-06-15T12:38:12.107Z,29.78
2019-06-15T12:39:12.209Z,29.94
2019-06-15T12:40:12.418Z,29.81
2019-06-15T12:41:12.599Z,29.90
2019-06-15T12:42:12.759Z,29.73
2019-06-15T12:43:12.920Z,29.71
2019-06-15T12:44:13.203Z,29.53
2019-06-15T12:45:13.223Z,29.56
2019-06-15T12:46:13.505Z,29.61
2019-06-15T12:47:13.619Z,29.71
2019-06-15T12:48:13.850Z,29.87
2019-06-15T12:49:13.884Z,29.79
2019-06-15T12:50:14.274Z,29.66
2019-06-15T12:51:14.608Z,29.29
2019-06-15T12:52:14.815Z,28.98
2019-06-15T12:53:14.868Z,28.86
2019-06-15T12:54:14.903Z,29.02